Time,TemperatureF,DewpointF,PressureIn,WindDirection,WindDirectionDegrees,WindSpeedMPH,WindSpeedGustMPH,Humidity,HourlyPrecipIn,Conditions,Clouds,dailyrainin,SolarRadiationWatts/m^2,SoftwareType,DateUTC
2013-10-16 00:22:00,40.0,23.0,-100.00,WSW,245,0.0,3.0,51,0.00,,,0.00,0.000000,,2013-10-16 06:22:00,
2013-10-16 00:33:00,40.0,23.0,-100.00,WSW,245,0.0,3.0,51,0.00,,,0.00,0.000000,,2013-10-16 06:33:00,
2013-10-16 01:21:00,37.0,21.0,-100.00,WNW,293,0.0,4.0,53,-99.99,,,0.00,0.000000,,2013-10-16 07:21:00,
2013-10-16 01:32:00,37.0,21.0,-100.00,WNW,293,0.0,4.0,53,-99.99,,,0.00,0.000000,,2013-10-16 07:32:00,
2013-10-16 01:42:00,37.0,21.0,-100.00,WNW,293,0.0,4.0,53,-99.99,,,0.00,0.000000,,2013-10-16 07:42:00,
2013-10-16 01:52:00,37.0,21.0,-100.00,WNW,293,0.0,4.0,53,-99.99,,,0.00,0.000000,,2013-10-16 07:52:00,
2013-10-16 02:21:00,38.0,18.0,-100.00,North,4,1.0,4.0,44,0.00,,,0.00,0.000000,,2013-10-16 08:21:00,
2013-10-16 02:32:00,38.0,18.0,-100.00,North,4,1.0,4.0,44,0.00,,,0.00,0.000000,,2013-10-16 08:32:00,
2013-10-16 02:41:00,38.0,18.0,-100.00,North,4,1.0,4.0,44,0.00,,,0.00,0.000000,,2013-10-16 08:41:00,
2013-10-16 02:52:00,38.0,18.0,-100.00,North,4,1.0,4.0,44,0.00,,,0.00,0.000000,,2013-10-16 08:52:00,
2013-10-16 03:22:00,38.0,16.0,-100.00,SSE,165,0.0,5.0,40,0.00,,,0.00,0.000000,,2013-10-16 09:22:00,
2013-10-16 03:33:00,38.0,16.0,-100.00,SSE,165,0.0,5.0,40,0.00,,,0.00,0.000000,,2013-10-16 09:33:00,
2013-10-16 03:53:00,38.0,16.0,-100.00,SSE,165,0.0,5.0,40,0.00,,,0.00,0.000000,,2013-10-16 09:53:00,
2013-10-16 08:22:00,38.0,18.0,-100.00,ENE,68,0.0,3.0,43,-99.99,,,0.00,0.000000,,2013-10-16 14:22:00,
2013-10-16 08:32:00,38.0,18.0,-100.00,ENE,68,0.0,3.0,43,-99.99,,,0.00,0.000000,,2013-10-16 14:32:00,
2013-10-16 08:52:00,38.0,18.0,-100.00,ENE,68,0.0,3.0,43,-99.99,,,0.00,0.000000,,2013-10-16 14:52:00,
2013-10-16 09:22:00,38.0,21.0,-100.00,SE,142,0.0,4.0,49,0.00,,,0.00,31.000000,,2013-10-16 15:22:00,
2013-10-16 09:33:00,38.0,21.0,-100.00,SE,142,0.0,4.0,49,0.00,,,0.00,31.000000,,2013-10-16 15:33:00,
2013-10-16 09:43:00,38.0,21.0,-100.00,SE,142,0.0,4.0,49,0.00,,,0.00,31.000000,,2013-10-16 15:43:00,
2013-10-16 09:53:00,38.0,21.0,-100.00,SE,142,0.0,4.0,49,0.00,,,0.00,31.000000,,2013-10-16 15:53:00,
2013-10-16 10:23:00,40.0,24.0,-100.00,South,178,0.0,4.0,52,0.00,,,0.00,87.000000,,2013-10-16 16:23:00,
2013-10-16 10:32:00,40.0,24.0,-100.00,South,178,0.0,4.0,52,0.00,,,0.00,87.000000,,2013-10-16 16:32:00,
2013-10-16 10:42:00,40.0,24.0,-100.00,South,178,0.0,4.0,52,0.00,,,0.00,87.000000,,2013-10-16 16:42:00,
2013-10-16 10:53:00,40.0,24.0,-100.00,South,178,0.0,4.0,52,0.00,,,0.00,87.000000,,2013-10-16 16:53:00,
2013-10-16 11:22:00,42.0,23.0,-100.00,NW,316,0.0,4.0,47,0.00,,,0.00,261.000000,,2013-10-16 17:22:00,
2013-10-16 11:33:00,42.0,23.0,-100.00,NW,316,0.0,4.0,47,0.00,,,0.00,261.000000,,2013-10-16 17:33:00,
2013-10-16 11:43:00,42.0,23.0,-100.00,NW,316,0.0,4.0,47,0.00,,,0.00,261.000000,,2013-10-16 17:43:00,
2013-10-16 11:52:00,42.0,23.0,-100.00,NW,316,0.0,4.0,47,0.00,,,0.00,261.000000,,2013-10-16 17:52:00,
2013-10-16 12:21:00,42.0,26.0,-100.00,NW,321,0.0,5.0,52,0.00,,,-99.99,203.000000,,2013-10-16 18:21:00,
2013-10-16 12:32:00,42.0,26.0,-100.00,NW,321,0.0,5.0,52,0.00,,,-99.99,203.000000,,2013-10-16 18:32:00,
2013-10-16 12:42:00,42.0,26.0,-100.00,NW,321,0.0,5.0,52,0.00,,,-99.99,203.000000,,2013-10-16 18:42:00,
2013-10-16 12:52:00,42.0,26.0,-100.00,NW,321,0.0,5.0,52,0.00,,,-99.99,203.000000,,2013-10-16 18:52:00,
2013-10-16 13:21:00,42.0,25.0,-100.00,West,276,0.0,6.0,51,0.00,,,0.00,181.000000,,2013-10-16 19:21:00,
2013-10-16 13:32:00,42.0,25.0,-100.00,West,276,0.0,6.0,51,0.00,,,0.00,181.000000,,2013-10-16 19:32:00,
2013-10-16 13:42:00,42.0,25.0,-100.00,West,276,0.0,6.0,51,0.00,,,0.00,181.000000,,2013-10-16 19:42:00,
2013-10-16 13:52:00,42.0,25.0,-100.00,West,276,0.0,6.0,51,0.00,,,0.00,181.000000,,2013-10-16 19:52:00,
2013-10-16 14:22:00,43.0,27.0,-100.00,WNW,286,0.0,4.0,52,0.00,,,0.00,165.000000,,2013-10-16 20:22:00,
2013-10-16 14:32:00,43.0,27.0,-100.00,WNW,286,0.0,4.0,52,0.00,,,0.00,165.000000,,2013-10-16 20:32:00,
2013-10-16 14:43:00,43.0,27.0,-100.00,WNW,286,0.0,4.0,52,0.00,,,0.00,165.000000,,2013-10-16 20:43:00,
2013-10-16 14:52:00,43.0,27.0,-100.00,WNW,286,0.0,4.0,52,0.00,,,0.00,165.000000,,2013-10-16 20:52:00,
2013-10-16 15:23:00,44.0,26.0,-100.00,WSW,258,0.0,5.0,48,0.00,,,0.00,293.000000,,2013-10-16 21:23:00,
2013-10-16 15:34:00,44.0,26.0,-100.00,WSW,258,0.0,5.0,48,0.00,,,0.00,293.000000,,2013-10-16 21:34:00,
2013-10-16 15:44:00,44.0,26.0,-100.00,WSW,258,0.0,5.0,48,0.00,,,0.00,293.000000,,2013-10-16 21:44:00,
2013-10-16 15:54:00,44.0,26.0,-100.00,WSW,258,0.0,5.0,48,0.00,,,0.00,293.000000,,2013-10-16 21:54:00,
2013-10-16 16:23:00,45.0,27.0,-100.00,WNW,294,0.0,6.0,48,0.00,,,0.00,233.000000,,2013-10-16 22:23:00,
2013-10-16 16:33:00,45.0,27.0,-100.00,WNW,294,0.0,6.0,48,0.00,,,0.00,233.000000,,2013-10-16 22:33:00,
2013-10-16 16:42:00,45.0,27.0,-100.00,WNW,294,0.0,6.0,48,0.00,,,0.00,233.000000,,2013-10-16 22:42:00,
2013-10-16 16:54:00,45.0,27.0,-100.00,WNW,294,0.0,6.0,48,0.00,,,0.00,233.000000,,2013-10-16 22:54:00,
2013-10-16 17:22:00,42.0,28.0,-100.00,West,261,0.0,5.0,57,0.00,,,0.00,110.000000,,2013-10-16 23:22:00,
2013-10-16 17:34:00,42.0,28.0,-100.00,West,261,0.0,5.0,57,0.00,,,0.00,110.000000,,2013-10-16 23:34:00,
2013-10-16 17:42:00,42.0,28.0,-100.00,West,261,0.0,5.0,57,0.00,,,0.00,110.000000,,2013-10-16 23:42:00,
2013-10-16 17:52:00,42.0,28.0,-100.00,West,261,0.0,5.0,57,0.00,,,0.00,110.000000,,2013-10-16 23:52:00,
2013-10-16 18:22:00,40.0,29.0,-100.00,WSW,237,0.0,0.0,64,0.00,,,0.00,38.000000,,2013-10-17 00:22:00,
2013-10-16 18:32:00,40.0,29.0,-100.00,WSW,237,0.0,0.0,64,0.00,,,0.00,38.000000,,2013-10-17 00:32:00,
2013-10-16 18:42:00,40.0,29.0,-100.00,WSW,237,0.0,0.0,64,0.00,,,0.00,38.000000,,2013-10-17 00:42:00,
2013-10-16 18:52:00,40.0,29.0,-100.00,WSW,237,0.0,0.0,64,0.00,,,0.00,38.000000,,2013-10-17 00:52:00,
2013-10-16 19:22:00,39.0,29.0,-100.00,SE,146,0.0,0.0,67,0.00,,,0.00,10.000000,,2013-10-17 01:22:00,
2013-10-16 19:32:00,39.0,29.0,-100.00,SE,146,0.0,0.0,67,0.00,,,0.00,10.000000,,2013-10-17 01:32:00,
2013-10-16 19:42:00,39.0,29.0,-100.00,SE,146,0.0,0.0,67,0.00,,,0.00,10.000000,,2013-10-17 01:42:00,
2013-10-16 19:52:00,39.0,29.0,-100.00,SE,146,0.0,0.0,67,0.00,,,0.00,10.000000,,2013-10-17 01:52:00,
2013-10-16 20:21:00,40.0,30.0,-100.00,North,6,0.0,0.0,67,0.00,,,0.00,0.000000,,2013-10-17 02:21:00,
2013-10-16 20:32:00,40.0,30.0,-100.00,North,6,0.0,0.0,67,0.00,,,0.00,0.000000,,2013-10-17 02:32:00,
2013-10-16 20:42:00,40.0,30.0,-100.00,North,6,0.0,0.0,67,0.00,,,0.00,0.000000,,2013-10-17 02:42:00,
2013-10-16 20:53:00,40.0,30.0,-100.00,North,6,0.0,0.0,67,0.00,,,0.00,0.000000,,2013-10-17 02:53:00,
2013-10-16 21:22:00,39.0,29.0,-100.00,North,352,0.0,0.0,68,0.00,,,0.00,0.000000,,2013-10-17 03:22:00,
2013-10-16 21:34:00,39.0,29.0,-100.00,North,352,0.0,0.0,68,0.00,,,0.00,0.000000,,2013-10-17 03:34:00,
2013-10-16 21:44:00,39.0,29.0,-100.00,North,352,0.0,0.0,68,0.00,,,0.00,0.000000,,2013-10-17 03:44:00,
2013-10-16 21:54:00,39.0,29.0,-100.00,North,352,0.0,0.0,68,0.00,,,0.00,0.000000,,2013-10-17 03:54:00,
2013-10-16 22:24:00,38.0,28.0,-100.00,SSE,165,0.0,0.0,68,0.00,,,0.00,0.000000,,2013-10-17 04:24:00,
2013-10-16 22:34:00,38.0,28.0,-100.00,SSE,165,0.0,0.0,68,0.00,,,0.00,0.000000,,2013-10-17 04:34:00,
2013-10-16 22:43:00,38.0,28.0,-100.00,SSE,165,0.0,0.0,68,0.00,,,0.00,0.000000,,2013-10-17 04:43:00,
2013-10-16 22:54:00,38.0,28.0,-100.00,SSE,165,0.0,0.0,68,0.00,,,0.00,0.000000,,2013-10-17 04:54:00,
2013-10-16 23:23:00,38.0,28.0,-100.00,East,81,0.0,0.0,68,0.00,,,0.00,0.000000,,2013-10-17 05:23:00,
2013-10-16 23:34:00,38.0,28.0,-100.00,East,81,0.0,0.0,68,0.00,,,0.00,0.000000,,2013-10-17 05:34:00,
2013-10-16 23:42:00,38.0,28.0,-100.00,East,81,0.0,0.0,68,0.00,,,0.00,0.000000,,2013-10-17 05:42:00,
2013-10-16 23:52:00,38.0,28.0,-100.00,East,81,0.0,0.0,68,0.00,,,0.00,0.000000,,2013-10-17 05:52:00,